createdAt,value
2017-05-28T00:01:57.871Z,8.10
2017-05-28T00:04:26.175Z,7.80
2017-05-28T00:06:54.522Z,7.56
2017-05-28T00:09:23.398Z,9.24
2017-05-28T00:11:51.328Z,8.36
2017-05-28T00:14:19.322Z,8.58
2017-05-28T00:16:47.260Z,7.50
2017-05-28T00:19:15.583Z,7.54
2017-05-28T00:21:43.934Z,8.32
2017-05-28T00:24:12.231Z,8.66
2017-05-28T00:26:41.275Z,8.84
2017-05-28T00:29:09.475Z,8.04
2017-05-28T00:31:37.403Z,8.18
2017-05-28T00:34:05.336Z,7.42
2017-05-28T00:36:34.267Z,8.16
2017-05-28T00:39:03.149Z,7.30
2017-05-28T00:41:31.825Z,9.50
2017-05-28T00:43:59.825Z,7.58
2017-05-28T00:46:28.136Z,7.68
2017-05-28T00:48:56.437Z,9.00
2017-05-28T00:51:24.779Z,8.40
2017-05-28T00:53:53.443Z,8.34
2017-05-28T00:56:22.326Z,8.46
2017-05-28T00:58:51.411Z,8.30
2017-05-28T01:01:19.719Z,7.44
2017-05-28T01:03:47.647Z,8.90
2017-05-28T01:06:16.594Z,7.64
2017-05-28T01:08:45.267Z,8.64
2017-05-28T01:11:13.566Z,8.56
2017-05-28T01:13:41.919Z,6.94
2017-05-28T01:16:10.795Z,8.52
2017-05-28T01:18:39.471Z,12.42
2017-05-28T01:21:07.451Z,10.28
2017-05-28T01:23:35.751Z,9.56
2017-05-28T01:26:03.688Z,8.08
2017-05-28T01:28:32.039Z,9.20
2017-05-28T01:31:00.718Z,9.12
2017-05-28T01:33:28.668Z,9.82
2017-05-28T01:35:56.778Z,9.80
2017-05-28T01:38:25.079Z,9.14
2017-05-28T01:40:53.007Z,7.98
2017-05-28T01:43:21.351Z,9.76
2017-05-28T01:45:49.647Z,8.98
2017-05-28T01:48:18.529Z,9.20
2017-05-28T01:50:46.897Z,9.10
2017-05-28T01:53:15.203Z,9.22
2017-05-28T01:55:43.135Z,10.90
2017-05-28T01:58:12.062Z,10.32
2017-05-28T02:00:40.358Z,11.50
2017-05-28T02:03:09.403Z,10.90
2017-05-28T02:05:37.752Z,10.68
2017-05-28T02:08:05.688Z,10.10
2017-05-28T02:10:33.986Z,10.60
2017-05-28T02:13:02.340Z,11.06
2017-05-28T02:15:30.279Z,11.32
2017-05-28T02:17:58.595Z,10.86
2017-05-28T02:20:26.939Z,9.76
2017-05-28T02:22:55.237Z,10.76
2017-05-28T02:25:23.538Z,10.28
2017-05-28T02:27:51.515Z,11.00
2017-05-28T02:30:20.554Z,10.58
2017-05-28T02:32:48.867Z,12.50
2017-05-28T02:35:17.399Z,13.78
2017-05-28T02:37:46.301Z,13.72
2017-05-28T02:40:14.979Z,12.56
2017-05-28T02:42:43.434Z,11.46
2017-05-28T02:45:11.372Z,10.74
2017-05-28T02:47:39.308Z,12.50
2017-05-28T02:50:07.974Z,12.32
2017-05-28T02:52:35.908Z,11.08
2017-05-28T02:55:04.583Z,11.16
2017-05-28T02:57:32.926Z,11.90
2017-05-28T03:00:00.890Z,12.66
2017-05-28T03:02:28.828Z,12.58
2017-05-28T03:04:57.222Z,12.10
2017-05-28T03:07:25.167Z,13.74
2017-05-28T03:09:54.455Z,13.26
2017-05-28T03:12:22.826Z,14.34
2017-05-28T03:14:50.759Z,14.22
2017-05-28T03:17:18.703Z,16.04
2017-05-28T03:19:46.701Z,13.46
2017-05-28T03:22:16.045Z,13.80
2017-05-28T03:24:44.938Z,15.24
2017-05-28T03:27:13.295Z,14.08
2017-05-28T03:29:41.223Z,16.00
2017-05-28T03:32:10.106Z,15.82
2017-05-28T03:34:38.459Z,16.94
2017-05-28T03:37:07.346Z,17.80
2017-05-28T03:39:36.059Z,15.38
2017-05-28T03:42:04.404Z,16.76
2017-05-28T03:44:32.713Z,17.32
2017-05-28T03:47:01.022Z,15.56
2017-05-28T03:49:29.402Z,17.62
2017-05-28T03:51:57.345Z,22.46
2017-05-28T03:54:25.656Z,18.88
2017-05-28T03:56:54.758Z,20.28
2017-05-28T03:59:22.698Z,20.56
2017-05-28T04:01:50.639Z,19.50
2017-05-28T04:04:18.996Z,20.62
2017-05-28T04:06:47.307Z,20.96
2017-05-28T04:09:15.240Z,23.62
2017-05-28T04:11:43.223Z,24.36
2017-05-28T04:14:11.526Z,25.54
2017-05-28T04:16:39.839Z,27.40
2017-05-28T04:19:08.186Z,25.66
2017-05-28T04:21:36.123Z,30.40
2017-05-28T04:24:04.802Z,28.12
2017-05-28T04:26:32.877Z,26.22
2017-05-28T04:29:00.824Z,25.54
2017-05-28T04:31:29.147Z,28.22
2017-05-28T04:33:57.503Z,25.72
2017-05-28T04:36:25.439Z,23.02
2017-05-28T04:38:54.488Z,27.28
2017-05-28T04:41:22.739Z,28.64
2017-05-28T04:43:50.675Z,25.72
2017-05-28T04:46:18.988Z,23.00
2017-05-28T04:48:46.971Z,25.58
2017-05-28T04:51:14.915Z,22.88
2017-05-28T04:53:43.223Z,21.94
2017-05-28T04:56:11.578Z,23.06
2017-05-28T04:58:39.514Z,23.78
2017-05-28T05:01:07.820Z,27.54
2017-05-28T05:03:36.176Z,25.98
2017-05-28T05:06:05.066Z,28.82
2017-05-28T05:11:27.358Z,31.66
2017-05-28T05:13:56.043Z,33.22
2017-05-28T05:16:24.355Z,29.82
2017-05-28T05:18:52.334Z,29.86
2017-05-28T05:21:20.262Z,30.96
2017-05-28T05:23:48.578Z,34.18
2017-05-28T05:26:16.564Z,36.02
2017-05-28T05:28:44.876Z,39.70
2017-05-28T05:31:12.823Z,34.18
2017-05-28T05:33:40.815Z,35.60
2017-05-28T05:36:09.191Z,35.48
2017-05-28T05:38:37.494Z,39.78
2017-05-28T05:41:06.223Z,43.38
2017-05-28T05:43:35.107Z,48.10
2017-05-28T05:46:04.155Z,44.62
2017-05-28T05:48:32.536Z,44.32
2017-05-28T05:51:00.852Z,44.90
2017-05-28T05:53:28.807Z,43.74
2017-05-28T05:55:57.164Z,53.88
2017-05-28T05:58:25.475Z,45.20
2017-05-28T06:00:54.159Z,42.50
2017-05-28T06:03:22.850Z,40.20
2017-05-28T06:05:51.154Z,47.48
2017-05-28T06:08:19.460Z,46.32
2017-05-28T06:10:48.386Z,44.96
2017-05-28T06:13:16.690Z,41.32
2017-05-28T06:15:44.998Z,46.60
2017-05-28T06:18:12.983Z,40.14
2017-05-28T06:20:41.291Z,40.98
2017-05-28T06:23:09.603Z,39.22
2017-05-28T06:25:38.335Z,39.02
2017-05-28T06:28:06.644Z,38.92
2017-05-28T06:30:35.550Z,39.78
2017-05-28T06:33:04.644Z,41.18
2017-05-28T06:35:32.594Z,35.18
2017-05-28T06:38:01.486Z,30.24
2017-05-28T06:40:30.223Z,30.60
2017-05-28T06:42:58.176Z,28.40
2017-05-28T06:45:26.490Z,23.20
2017-05-28T06:47:54.479Z,24.26
2017-05-28T06:50:22.419Z,21.88
2017-05-28T06:52:50.355Z,24.58
2017-05-28T06:55:18.711Z,24.74
2017-05-28T06:57:46.647Z,18.94
2017-05-28T07:00:14.954Z,19.06
2017-05-28T07:02:43.332Z,18.00
2017-05-28T07:05:11.639Z,14.48
2017-05-28T07:07:39.575Z,12.82
2017-05-28T07:10:07.922Z,13.70
2017-05-28T07:12:36.606Z,13.10
2017-05-28T07:15:05.655Z,14.48
2017-05-28T07:17:33.643Z,17.20
2017-05-28T07:20:01.955Z,14.42
2017-05-28T07:22:29.910Z,14.44
2017-05-28T07:24:58.298Z,15.58
2017-05-28T07:27:26.638Z,12.30
2017-05-28T07:29:54.943Z,14.56
2017-05-28T07:32:23.319Z,16.56
2017-05-28T07:34:52.214Z,15.32
2017-05-28T07:37:20.519Z,14.04
2017-05-28T07:39:48.527Z,18.98
2017-05-28T07:42:16.835Z,12.04
2017-05-28T07:44:45.951Z,13.50
2017-05-28T07:47:14.307Z,13.14
2017-05-28T07:49:43.234Z,14.44
2017-05-28T07:52:12.290Z,13.52
2017-05-28T07:54:40.271Z,13.14
2017-05-28T07:57:08.215Z,15.48
2017-05-28T07:59:37.110Z,16.22
2017-05-28T08:02:05.478Z,14.24
2017-05-28T08:04:33.803Z,14.68
2017-05-28T08:07:01.756Z,13.92
2017-05-28T08:09:30.150Z,13.14
2017-05-28T08:11:58.481Z,12.02
2017-05-28T08:14:26.788Z,13.16
2017-05-28T08:16:55.738Z,14.80
2017-05-28T08:19:24.418Z,16.06
2017-05-28T08:21:52.728Z,16.94
2017-05-28T08:24:20.711Z,26.08
2017-05-28T08:26:49.021Z,17.32
2017-05-28T08:29:17.333Z,17.66
2017-05-28T08:31:46.071Z,20.14
2017-05-28T08:34:14.009Z,24.50
2017-05-28T08:36:41.947Z,29.00
2017-05-28T08:39:10.650Z,26.98
2017-05-28T08:41:38.580Z,24.14
2017-05-28T08:44:06.518Z,25.12
2017-05-28T08:46:35.606Z,19.86
2017-05-28T08:49:03.911Z,22.60
2017-05-28T08:51:31.855Z,22.88
2017-05-28T08:54:00.603Z,25.22
2017-05-28T08:56:29.507Z,23.08
2017-05-28T08:58:58.562Z,27.66
2017-05-28T09:01:26.947Z,23.30
2017-05-28T09:03:55.842Z,20.80
2017-05-28T09:06:24.519Z,23.12
2017-05-28T09:08:53.241Z,22.56
2017-05-28T09:11:21.179Z,23.52
2017-05-28T09:13:50.231Z,22.88
2017-05-28T09:16:19.258Z,22.00
2017-05-28T09:18:47.938Z,21.66
2017-05-28T09:21:16.255Z,19.52
2017-05-28T09:23:44.239Z,22.52
2017-05-28T09:26:12.549Z,22.18
2017-05-28T09:28:41.595Z,24.80
2017-05-28T09:31:09.591Z,22.70
2017-05-28T09:33:37.896Z,21.48
2017-05-28T09:36:05.830Z,24.00
2017-05-28T09:38:33.815Z,23.62
2017-05-28T09:41:02.131Z,24.06
2017-05-28T09:43:30.071Z,23.14
2017-05-28T09:45:58.513Z,24.04
2017-05-28T09:48:26.427Z,23.76
2017-05-28T09:50:54.727Z,24.92
2017-05-28T09:53:23.079Z,24.74
2017-05-28T09:55:51.386Z,27.78
2017-05-28T09:58:19.695Z,26.32
2017-05-28T10:00:48.059Z,28.88
2017-05-28T10:03:15.996Z,30.48
2017-05-28T10:05:44.298Z,31.22
2017-05-28T10:08:12.650Z,34.42
2017-05-28T10:10:41.332Z,34.22
2017-05-28T10:13:09.639Z,35.22
2017-05-28T10:15:37.991Z,32.56
2017-05-28T10:18:06.303Z,33.74
2017-05-28T10:20:34.606Z,34.10
2017-05-28T10:23:03.542Z,32.24
2017-05-28T10:25:32.223Z,38.40
2017-05-28T10:28:00.163Z,32.28
2017-05-28T10:30:28.863Z,31.98
2017-05-28T10:32:57.174Z,21.16
2017-05-28T10:35:25.106Z,20.16
2017-05-28T10:37:53.972Z,19.92
2017-05-28T10:40:22.862Z,15.70
2017-05-28T10:42:51.751Z,16.74
2017-05-28T10:45:20.098Z,16.94
2017-05-28T10:47:48.034Z,17.28
2017-05-28T10:50:17.087Z,18.84
2017-05-28T10:52:46.027Z,22.70
2017-05-28T10:55:14.916Z,33.78
2017-05-28T10:57:43.598Z,28.94
2017-05-28T11:00:11.607Z,27.32
2017-05-28T11:02:39.535Z,21.90
2017-05-28T11:05:57.849Z,20.96
2017-05-28T11:08:26.167Z,19.94
2017-05-28T11:10:54.474Z,21.24
2017-05-28T11:13:22.819Z,20.80
2017-05-28T11:15:50.755Z,26.70
2017-05-28T11:18:19.084Z,25.96
2017-05-28T11:20:47.825Z,25.26
2017-05-28T11:23:19.088Z,23.24
2017-05-28T11:25:47.807Z,26.50
2017-05-28T11:28:16.146Z,24.80
2017-05-28T11:30:45.042Z,24.70
2017-05-28T11:33:12.984Z,26.78
2017-05-28T11:35:41.340Z,25.14
2017-05-28T11:38:09.275Z,24.76
2017-05-28T11:40:37.208Z,25.02
2017-05-28T11:43:05.646Z,22.18
2017-05-28T11:45:33.595Z,24.06
2017-05-28T11:48:01.915Z,25.58
2017-05-28T11:50:29.919Z,21.50
2017-05-28T11:52:58.258Z,25.06
2017-05-28T11:55:26.574Z,20.56
2017-05-28T11:57:54.590Z,21.60
2017-05-28T12:00:23.491Z,22.80
2017-05-28T12:02:52.378Z,17.94
2017-05-28T12:05:21.326Z,20.18
2017-05-28T12:07:49.643Z,21.74
2017-05-28T12:10:18.579Z,21.76
2017-05-28T12:12:47.274Z,19.30
2017-05-28T12:15:16.200Z,21.42
2017-05-28T12:17:45.251Z,21.18
2017-05-28T12:20:13.275Z,20.24
2017-05-28T12:22:41.211Z,22.70
2017-05-28T12:25:09.519Z,19.68
2017-05-28T12:27:37.510Z,17.62
2017-05-28T12:30:05.827Z,17.68
2017-05-28T12:32:33.767Z,18.30
2017-05-28T12:35:02.159Z,17.38
2017-05-28T12:37:30.493Z,13.68
2017-05-28T12:40:00.534Z,12.76
2017-05-28T12:42:28.944Z,11.10
2017-05-28T12:44:57.260Z,7.02
2017-05-28T12:47:25.568Z,7.16
2017-05-28T12:49:53.556Z,7.10
2017-05-28T12:52:21.855Z,5.40
2017-05-28T12:54:50.163Z,5.04
2017-05-28T12:57:19.111Z,6.00
2017-05-28T12:59:47.060Z,4.26
2017-05-28T13:02:14.988Z,3.42
2017-05-28T13:04:43.342Z,3.04
2017-05-28T13:07:11.288Z,3.52
2017-05-28T13:09:39.220Z,3.36
2017-05-28T13:12:08.329Z,4.60
2017-05-28T13:14:36.630Z,6.64
2017-05-28T13:17:05.511Z,5.18
2017-05-28T13:19:34.237Z,4.36
2017-05-28T13:22:03.298Z,4.72
2017-05-28T13:24:32.199Z,5.26
2017-05-28T13:27:01.162Z,5.32
2017-05-28T13:29:30.231Z,6.12
2017-05-28T13:31:58.575Z,13.58
2017-05-28T13:34:26.593Z,8.96
2017-05-28T13:36:54.533Z,6.58
2017-05-28T13:39:22.836Z,6.74
2017-05-28T13:41:50.839Z,5.60
2017-05-28T13:44:19.147Z,6.86
2017-05-28T13:46:47.107Z,9.36
2017-05-28T13:49:15.459Z,7.94
2017-05-28T13:51:43.396Z,6.26
2017-05-28T13:54:11.327Z,7.40
2017-05-28T13:56:39.704Z,7.16
2017-05-28T13:59:08.002Z,9.72
2017-05-28T14:01:36.304Z,9.58
2017-05-28T14:04:04.658Z,6.76
2017-05-28T14:06:32.591Z,7.04
2017-05-28T14:09:00.903Z,7.60
2017-05-28T14:11:29.269Z,7.70
2017-05-28T14:13:57.640Z,7.20
2017-05-28T14:16:25.567Z,6.58
2017-05-28T14:18:54.660Z,5.44
2017-05-28T14:21:23.539Z,6.26
2017-05-28T14:23:52.431Z,6.48
2017-05-28T14:26:21.147Z,7.76
2017-05-28T14:28:49.087Z,7.66
2017-05-28T14:31:17.039Z,7.04
2017-05-28T14:33:45.387Z,7.02
2017-05-28T14:36:13.694Z,5.12
2017-05-28T14:38:41.618Z,5.94
2017-05-28T14:41:10.100Z,6.72
2017-05-28T14:43:38.031Z,7.02
2017-05-28T14:46:06.331Z,5.38
2017-05-28T14:48:34.675Z,5.38
2017-05-28T14:51:02.987Z,5.66
2017-05-28T14:53:31.891Z,4.78
2017-05-28T14:56:00.409Z,6.32
2017-05-28T14:58:28.401Z,6.00
2017-05-28T15:00:56.335Z,5.28
2017-05-28T15:03:24.709Z,6.04
2017-05-28T15:05:52.650Z,6.06
2017-05-28T15:08:20.575Z,7.36
2017-05-28T15:10:48.971Z,4.92
2017-05-28T15:13:16.919Z,5.28
2017-05-28T15:18:39.867Z,5.08
2017-05-28T15:21:07.806Z,5.52
2017-05-28T15:23:35.744Z,5.10
2017-05-28T15:26:04.116Z,5.28
2017-05-28T15:28:32.806Z,5.82
2017-05-28T15:31:01.711Z,7.18
2017-05-28T15:33:31.188Z,5.28
2017-05-28T15:35:59.885Z,7.04
2017-05-28T15:38:28.215Z,5.58
2017-05-28T15:40:56.199Z,5.06
2017-05-28T15:43:24.511Z,6.48
2017-05-28T15:45:52.436Z,5.16
2017-05-28T15:48:20.786Z,4.90
2017-05-28T15:50:48.752Z,6.30
2017-05-28T15:53:16.697Z,5.36
2017-05-28T15:55:45.055Z,6.00
2017-05-28T15:58:12.994Z,5.56
2017-05-28T16:00:42.047Z,5.30
2017-05-28T16:03:10.663Z,6.26
2017-05-28T16:05:38.977Z,5.90
2017-05-28T16:08:08.027Z,9.48
2017-05-28T16:10:36.403Z,5.02
2017-05-28T16:13:04.807Z,6.60
2017-05-28T16:15:33.885Z,8.12
2017-05-28T16:18:02.071Z,5.80
2017-05-28T16:20:31.074Z,7.18
2017-05-28T16:23:00.035Z,4.76
2017-05-28T16:25:28.424Z,6.46
2017-05-28T16:27:56.755Z,6.24
2017-05-28T16:30:25.069Z,6.44
2017-05-28T16:32:54.034Z,4.70
2017-05-28T16:35:22.711Z,5.78
2017-05-28T16:37:50.639Z,6.18
2017-05-28T16:40:18.987Z,6.40
2017-05-28T16:42:47.303Z,6.10
2017-05-28T16:45:15.610Z,6.14
2017-05-28T16:47:44.327Z,5.14
2017-05-28T16:50:12.631Z,5.40
2017-05-28T16:52:40.558Z,7.30
2017-05-28T16:55:09.660Z,5.72
2017-05-28T16:57:37.961Z,6.74
2017-05-28T17:00:05.913Z,6.04
2017-05-28T17:02:33.999Z,6.78
2017-05-28T17:05:01.971Z,6.70
2017-05-28T17:07:30.275Z,6.94
2017-05-28T17:09:58.321Z,5.94
2017-05-28T17:12:26.263Z,5.90
2017-05-28T17:14:54.570Z,6.10
2017-05-28T17:17:22.555Z,8.50
2017-05-28T17:19:50.859Z,6.38
2017-05-28T17:22:18.787Z,5.40
2017-05-28T17:24:47.154Z,6.36
2017-05-28T17:27:15.456Z,5.76
2017-05-28T17:29:43.763Z,5.92
2017-05-28T17:32:11.746Z,5.70
2017-05-28T17:34:40.062Z,6.08
2017-05-28T17:37:08.363Z,6.22
2017-05-28T17:39:36.747Z,6.72
2017-05-28T17:42:04.687Z,6.22
2017-05-28T17:44:33.738Z,5.64
2017-05-28T17:47:02.709Z,7.12
2017-05-28T17:49:31.606Z,5.82
2017-05-28T17:52:00.323Z,8.74
2017-05-28T17:54:28.335Z,7.28
2017-05-28T17:56:56.272Z,5.90
2017-05-28T17:59:24.578Z,6.08
2017-05-28T18:01:52.576Z,6.14
2017-05-28T18:04:20.911Z,7.72
2017-05-28T18:06:49.223Z,5.84
2017-05-28T18:09:17.208Z,7.88
2017-05-28T18:11:45.514Z,7.00
2017-05-28T18:14:13.824Z,6.50
2017-05-28T18:16:42.171Z,6.98
2017-05-28T18:19:10.111Z,6.06
2017-05-28T18:21:39.001Z,8.54
2017-05-28T18:24:07.798Z,6.82
2017-05-28T18:26:35.744Z,6.98
2017-05-28T18:29:03.690Z,7.36
2017-05-28T18:31:32.630Z,7.58
2017-05-28T18:34:00.928Z,7.96
2017-05-28T18:36:28.868Z,7.08
2017-05-28T18:38:57.798Z,6.92
2017-05-28T18:41:26.471Z,7.68
2017-05-28T18:43:54.772Z,8.00
2017-05-28T18:46:22.764Z,6.72
2017-05-28T18:48:51.059Z,7.06
2017-05-28T18:51:19.354Z,6.92
2017-05-28T18:53:48.291Z,6.96
2017-05-28T18:56:17.223Z,7.10
2017-05-28T18:58:46.033Z,7.46
2017-05-28T19:01:14.412Z,7.40
2017-05-28T19:03:42.486Z,7.22
2017-05-28T19:06:10.558Z,7.32
2017-05-28T19:08:39.560Z,7.84
2017-05-28T19:11:07.876Z,7.24
2017-05-28T19:13:35.811Z,7.68
2017-05-28T19:16:04.159Z,7.38
2017-05-28T19:18:32.085Z,7.86
2017-05-28T19:21:00.022Z,8.08
2017-05-28T19:23:28.370Z,7.36
2017-05-28T19:25:56.308Z,7.16
2017-05-28T19:28:24.614Z,7.76
2017-05-28T19:30:53.703Z,7.80
2017-05-28T19:33:23.395Z,7.12
2017-05-28T19:35:51.702Z,7.50
2017-05-28T19:38:19.676Z,8.24
2017-05-28T19:40:47.989Z,7.50
2017-05-28T19:43:15.932Z,7.92
2017-05-28T19:45:44.878Z,7.94
2017-05-28T19:48:13.183Z,8.28
2017-05-28T19:50:41.482Z,9.26
2017-05-28T19:56:03.759Z,8.00
2017-05-28T19:58:31.692Z,9.22
2017-05-28T20:01:00.026Z,7.00
2017-05-28T20:03:28.015Z,7.82
2017-05-28T20:05:56.739Z,8.68
2017-05-28T20:08:25.684Z,9.60
2017-05-28T20:10:53.712Z,9.62
2017-05-28T20:13:22.666Z,8.94
2017-05-28T20:15:51.003Z,8.42
2017-05-28T20:18:19.074Z,10.18
2017-05-28T20:20:47.372Z,9.84
2017-05-28T20:23:15.671Z,11.00
2017-05-28T20:25:44.023Z,10.40
2017-05-28T20:28:12.323Z,10.66
2017-05-28T20:30:41.244Z,10.14
2017-05-28T20:33:09.579Z,9.82
2017-05-28T20:35:37.510Z,9.44
2017-05-28T20:38:05.438Z,9.58
2017-05-28T20:40:33.798Z,10.22
2017-05-28T20:43:01.739Z,8.96
2017-05-28T20:45:30.039Z,10.00
2017-05-28T20:47:59.166Z,10.18
2017-05-28T20:50:27.463Z,9.86
2017-05-28T20:52:56.529Z,10.92
2017-05-28T20:55:24.899Z,11.44
2017-05-28T20:57:53.230Z,11.84
2017-05-28T21:00:21.188Z,10.74
2017-05-28T21:02:49.539Z,10.88
2017-05-28T21:05:18.434Z,12.52
2017-05-28T21:07:47.111Z,12.16
2017-05-28T21:10:15.098Z,11.66
2017-05-28T21:12:43.074Z,11.04
2017-05-28T21:15:11.399Z,10.52
2017-05-28T21:17:39.423Z,11.78
2017-05-28T21:20:07.364Z,11.32
2017-05-28T21:22:36.055Z,11.22
2017-05-28T21:25:04.411Z,11.92
2017-05-28T21:27:32.711Z,13.16
2017-05-28T21:30:01.602Z,12.70
2017-05-28T21:32:30.335Z,13.52
2017-05-28T21:34:58.643Z,12.56
2017-05-28T21:37:26.594Z,13.08
2017-05-28T21:39:54.943Z,14.20
2017-05-28T21:42:23.294Z,14.30
2017-05-28T21:44:51.619Z,14.46
2017-05-28T21:47:19.703Z,14.66
2017-05-28T21:49:48.006Z,14.62
2017-05-28T21:52:17.046Z,12.58
2017-05-28T21:54:45.023Z,13.44
2017-05-28T21:57:13.326Z,11.86
2017-05-28T21:59:41.264Z,12.12
2017-05-28T22:02:09.620Z,12.24
2017-05-28T22:04:37.564Z,11.62
2017-05-28T22:07:05.507Z,11.44
2017-05-28T22:09:33.891Z,12.30
2017-05-28T22:12:01.855Z,13.50
2017-05-28T22:14:30.171Z,13.40
2017-05-28T22:16:58.519Z,14.36
2017-05-28T22:19:26.472Z,13.10
2017-05-28T22:21:54.801Z,14.70
2017-05-28T22:24:23.185Z,13.58
2017-05-28T22:26:51.516Z,13.78
2017-05-28T22:29:19.450Z,13.68
2017-05-28T22:31:47.800Z,12.18
2017-05-28T22:34:16.843Z,13.72
2017-05-28T22:36:44.786Z,14.32
2017-05-28T22:39:13.157Z,14.02
2017-05-28T22:41:41.107Z,16.06
2017-05-28T22:44:09.050Z,12.20
2017-05-28T22:46:37.403Z,12.80
2017-05-28T22:49:05.343Z,13.80
2017-05-28T22:51:33.642Z,13.40
2017-05-28T22:54:01.990Z,13.86
2017-05-28T22:56:30.291Z,13.80
2017-05-28T22:58:58.227Z,15.42
2017-05-28T23:01:26.582Z,14.86
2017-05-28T23:03:54.906Z,15.12
2017-05-28T23:06:23.241Z,18.40
2017-05-28T23:08:51.286Z,17.00
2017-05-28T23:11:19.606Z,16.50
2017-05-28T23:13:47.914Z,16.78
2017-05-28T23:16:16.638Z,14.80
2017-05-28T23:18:44.571Z,17.32
2017-05-28T23:21:12.507Z,14.22
2017-05-28T23:23:41.249Z,14.64
2017-05-28T23:26:09.199Z,15.56
2017-05-28T23:28:37.135Z,15.76
2017-05-28T23:31:05.855Z,15.10
2017-05-28T23:33:34.166Z,15.72
2017-05-28T23:36:02.486Z,15.40
2017-05-28T23:38:30.836Z,16.66
2017-05-28T23:40:59.146Z,17.48
2017-05-28T23:43:28.040Z,16.28
2017-05-28T23:45:57.170Z,17.12
2017-05-28T23:48:25.112Z,15.80
2017-05-28T23:50:54.182Z,16.28
2017-05-28T23:55:57.859Z,15.92
2017-05-28T23:58:26.596Z,15.38
